sensor_id;sensor_type;location;lat;lon;timestamp;temperature;humidity
2897;DHT22;1458;49.728;9.228;2023-04-15T00:02:14;4.90;99.90
2897;DHT22;1458;49.728;9.228;2023-04-15T00:04:44;5.00;99.90
2897;DHT22;1458;49.728;9.228;2023-04-15T00:07:12;5.00;99.90
2897;DHT22;1458;49.728;9.228;2023-04-15T00:09:41;5.00;99.90
2897;DHT22;1458;49.728;9.228;2023-04-15T00:12:11;4.90;99.90
2897;DHT22;1458;49.728;9.228;2023-04-15T00:14:38;4.90;99.90
2897;DHT22;1458;49.728;9.228;2023-04-15T00:17:06;4.90;99.90
2897;DHT22;1458;49.728;9.228;2023-04-15T00:19:33;4.90;99.90
2897;DHT22;1458;49.728;9.228;2023-04-15T00:22:01;4.80;99.90
2897;DHT22;1458;49.728;9.228;2023-04-15T00:24:30;4.80;99.90
2897;DHT22;1458;49.728;9.228;2023-04-15T00:26:57;4.90;99.90
2897;DHT22;1458;49.728;9.228;2023-04-15T00:29:25;5.10;99.90
2897;DHT22;1458;49.728;9.228;2023-04-15T00:31:53;5.30;99.90
2897;DHT22;1458;49.728;9.228;2023-04-15T00:34:20;5.40;99.90
2897;DHT22;1458;49.728;9.228;2023-04-15T00:36:48;5.40;99.90
2897;DHT22;1458;49.728;9.228;2023-04-15T00:39:16;5.20;99.90
2897;DHT22;1458;49.728;9.228;2023-04-15T00:41:45;5.00;99.90
2897;DHT22;1458;49.728;9.228;2023-04-15T00:44:13;4.80;99.90
2897;DHT22;1458;49.728;9.228;2023-04-15T00:46:40;4.70;99.90
2897;DHT22;1458;49.728;9.228;2023-04-15T00:49:10;4.70;99.90
2897;DHT22;1458;49.728;9.228;2023-04-15T00:51:38;4.70;99.90
2897;DHT22;1458;49.728;9.228;2023-04-15T00:54:06;4.70;99.90
2897;DHT22;1458;49.728;9.228;2023-04-15T00:56:35;4.70;99.90
2897;DHT22;1458;49.728;9.228;2023-04-15T00:59:05;4.60;99.90
2897;DHT22;1458;49.728;9.228;2023-04-15T01:01:33;4.50;99.90
2897;DHT22;1458;49.728;9.228;2023-04-15T01:04:02;4.50;99.90
2897;DHT22;1458;49.728;9.228;2023-04-15T01:06:30;4.50;99.90
2897;DHT22;1458;49.728;9.228;2023-04-15T01:08:58;4.50;99.90
2897;DHT22;1458;49.728;9.228;2023-04-15T01:11:26;4.40;99.90
2897;DHT22;1458;49.728;9.228;2023-04-15T01:13:55;4.40;99.90
2897;DHT22;1458;49.728;9.228;2023-04-15T01:16:25;4.40;99.90
2897;DHT22;1458;49.728;9.228;2023-04-15T01:18:53;4.40;99.90
2897;DHT22;1458;49.728;9.228;2023-04-15T01:21:22;4.50;99.90
2897;DHT22;1458;49.728;9.228;2023-04-15T01:23:50;4.40;99.90
2897;DHT22;1458;49.728;9.228;2023-04-15T01:26:21;4.50;99.90
2897;DHT22;1458;49.728;9.228;2023-04-15T01:28:49;4.40;99.90
2897;DHT22;1458;49.728;9.228;2023-04-15T01:31:16;4.40;99.90
2897;DHT22;1458;49.728;9.228;2023-04-15T01:33:44;4.40;99.90
2897;DHT22;1458;49.728;9.228;2023-04-15T01:36:13;4.40;99.90
2897;DHT22;1458;49.728;9.228;2023-04-15T01:38:41;4.40;99.90
2897;DHT22;1458;49.728;9.228;2023-04-15T01:41:08;4.40;99.90
2897;DHT22;1458;49.728;9.228;2023-04-15T01:43:37;4.50;99.90
2897;DHT22;1458;49.728;9.228;2023-04-15T01:46:05;4.70;99.90
2897;DHT22;1458;49.728;9.228;2023-04-15T01:48:32;4.90;99.90
2897;DHT22;1458;49.728;9.228;2023-04-15T01:51:02;4.80;99.90
2897;DHT22;1458;49.728;9.228;2023-04-15T01:53:30;4.80;99.90
2897;DHT22;1458;49.728;9.228;2023-04-15T01:56:01;4.90;99.90
2897;DHT22;1458;49.728;9.228;2023-04-15T01:58:29;4.90;99.90
2897;DHT22;1458;49.728;9.228;2023-04-15T02:00:58;4.80;99.90
2897;DHT22;1458;49.728;9.228;2023-04-15T02:03:30;4.80;99.90
2897;DHT22;1458;49.728;9.228;2023-04-15T02:05:58;4.70;99.90
2897;DHT22;1458;49.728;9.228;2023-04-15T02:08:27;4.80;99.90
2897;DHT22;1458;49.728;9.228;2023-04-15T02:10:55;4.70;99.90
2897;DHT22;1458;49.728;9.228;2023-04-15T02:13:24;4.90;99.90
2897;DHT22;1458;49.728;9.228;2023-04-15T02:15:53;4.80;99.90
2897;DHT22;1458;49.728;9.228;2023-04-15T02:18:22;4.80;99.90
2897;DHT22;1458;49.728;9.228;2023-04-15T02:20:50;4.70;99.90
2897;DHT22;1458;49.728;9.228;2023-04-15T02:23:18;4.60;99.90
2897;DHT22;1458;49.728;9.228;2023-04-15T02:25:46;4.70;99.90
2897;DHT22;1458;49.728;9.228;2023-04-15T02:28:13;4.60;99.90
2897;DHT22;1458;49.728;9.228;2023-04-15T02:30:46;4.50;99.90
2897;DHT22;1458;49.728;9.228;2023-04-15T02:33:15;4.50;99.90
2897;DHT22;1458;49.728;9.228;2023-04-15T02:35:44;4.50;99.90
2897;DHT22;1458;49.728;9.228;2023-04-15T02:38:12;4.50;99.90
2897;DHT22;1458;49.728;9.228;2023-04-15T02:40:41;4.40;99.90
2897;DHT22;1458;49.728;9.228;2023-04-15T02:43:09;4.50;99.90
2897;DHT22;1458;49.728;9.228;2023-04-15T02:45:37;4.50;99.90
2897;DHT22;1458;49.728;9.228;2023-04-15T02:48:05;4.50;99.90
2897;DHT22;1458;49.728;9.228;2023-04-15T02:50:32;4.50;99.90
2897;DHT22;1458;49.728;9.228;2023-04-15T02:53:01;4.50;99.90
2897;DHT22;1458;49.728;9.228;2023-04-15T02:55:30;4.60;99.90
2897;DHT22;1458;49.728;9.228;2023-04-15T02:57:57;4.70;99.90
2897;DHT22;1458;49.728;9.228;2023-04-15T03:00:26;4.70;99.90
2897;DHT22;1458;49.728;9.228;2023-04-15T03:02:58;4.80;99.90
2897;DHT22;1458;49.728;9.228;2023-04-15T03:05:31;4.70;99.90
2897;DHT22;1458;49.728;9.228;2023-04-15T03:08:03;4.50;99.90
2897;DHT22;1458;49.728;9.228;2023-04-15T03:10:31;4.40;99.90
2897;DHT22;1458;49.728;9.228;2023-04-15T03:13:00;4.40;99.90
2897;DHT22;1458;49.728;9.228;2023-04-15T03:15:28;4.40;99.90
2897;DHT22;1458;49.728;9.228;2023-04-15T03:17:55;4.50;99.90
2897;DHT22;1458;49.728;9.228;2023-04-15T03:20:23;4.50;99.90
2897;DHT22;1458;49.728;9.228;2023-04-15T03:22:50;4.50;99.90
2897;DHT22;1458;49.728;9.228;2023-04-15T03:25:21;4.40;99.90
2897;DHT22;1458;49.728;9.228;2023-04-15T03:27:48;4.50;99.90
2897;DHT22;1458;49.728;9.228;2023-04-15T03:30:17;4.60;99.90
2897;DHT22;1458;49.728;9.228;2023-04-15T03:32:44;4.60;99.90
2897;DHT22;1458;49.728;9.228;2023-04-15T03:35:12;4.40;99.90
2897;DHT22;1458;49.728;9.228;2023-04-15T03:37:40;4.60;99.90
2897;DHT22;1458;49.728;9.228;2023-04-15T03:40:08;4.60;99.90
2897;DHT22;1458;49.728;9.228;2023-04-15T03:42:37;4.60;99.90
2897;DHT22;1458;49.728;9.228;2023-04-15T03:45:06;4.50;99.90
2897;DHT22;1458;49.728;9.228;2023-04-15T03:47:34;4.60;99.90
2897;DHT22;1458;49.728;9.228;2023-04-15T03:50:01;4.70;99.90
2897;DHT22;1458;49.728;9.228;2023-04-15T03:52:29;4.70;99.90
2897;DHT22;1458;49.728;9.228;2023-04-15T03:54:56;4.70;99.90
2897;DHT22;1458;49.728;9.228;2023-04-15T03:57:24;4.70;99.90
2897;DHT22;1458;49.728;9.228;2023-04-15T03:59:52;4.80;99.90
2897;DHT22;1458;49.728;9.228;2023-04-15T04:02:20;4.70;99.90
2897;DHT22;1458;49.728;9.228;2023-04-15T04:04:48;4.60;99.90
2897;DHT22;1458;49.728;9.228;2023-04-15T04:07:15;4.60;99.90
2897;DHT22;1458;49.728;9.228;2023-04-15T04:09:43;4.50;99.90
2897;DHT22;1458;49.728;9.228;2023-04-15T04:12:10;4.50;99.90
2897;DHT22;1458;49.728;9.228;2023-04-15T04:14:38;4.40;99.90
2897;DHT22;1458;49.728;9.228;2023-04-15T04:17:07;4.50;99.90
2897;DHT22;1458;49.728;9.228;2023-04-15T04:19:34;4.50;99.90
2897;DHT22;1458;49.728;9.228;2023-04-15T04:22:02;4.50;99.90
2897;DHT22;1458;49.728;9.228;2023-04-15T04:24:29;4.50;99.90
2897;DHT22;1458;49.728;9.228;2023-04-15T04:26:57;4.50;99.90
2897;DHT22;1458;49.728;9.228;2023-04-15T04:29:25;4.40;99.90
2897;DHT22;1458;49.728;9.228;2023-04-15T04:31:53;4.50;99.90
2897;DHT22;1458;49.728;9.228;2023-04-15T04:34:21;4.60;99.90
2897;DHT22;1458;49.728;9.228;2023-04-15T04:36:49;4.60;99.90
2897;DHT22;1458;49.728;9.228;2023-04-15T04:39:16;4.70;99.90
2897;DHT22;1458;49.728;9.228;2023-04-15T04:41:44;4.60;99.90
2897;DHT22;1458;49.728;9.228;2023-04-15T04:44:11;4.60;99.90
2897;DHT22;1458;49.728;9.228;2023-04-15T04:46:39;4.60;99.90
2897;DHT22;1458;49.728;9.228;2023-04-15T04:49:06;4.50;99.90
2897;DHT22;1458;49.728;9.228;2023-04-15T04:51:35;4.50;99.90
2897;DHT22;1458;49.728;9.228;2023-04-15T04:54:03;4.60;99.90
2897;DHT22;1458;49.728;9.228;2023-04-15T04:56:30;4.60;99.90
2897;DHT22;1458;49.728;9.228;2023-04-15T04:58:59;4.60;99.90
2897;DHT22;1458;49.728;9.228;2023-04-15T05:01:26;4.60;99.90
2897;DHT22;1458;49.728;9.228;2023-04-15T05:03:54;4.70;99.90
2897;DHT22;1458;49.728;9.228;2023-04-15T05:06:21;4.80;99.90
2897;DHT22;1458;49.728;9.228;2023-04-15T05:08:50;4.70;99.90
2897;DHT22;1458;49.728;9.228;2023-04-15T05:11:18;4.80;99.90
2897;DHT22;1458;49.728;9.228;2023-04-15T05:13:45;5.00;99.90
2897;DHT22;1458;49.728;9.228;2023-04-15T05:16:13;5.00;99.90
2897;DHT22;1458;49.728;9.228;2023-04-15T05:18:40;5.10;99.90
2897;DHT22;1458;49.728;9.228;2023-04-15T05:21:07;5.20;99.90
2897;DHT22;1458;49.728;9.228;2023-04-15T05:23:35;5.30;99.90
2897;DHT22;1458;49.728;9.228;2023-04-15T05:26:04;5.40;99.90
2897;DHT22;1458;49.728;9.228;2023-04-15T05:28:31;5.50;99.90
2897;DHT22;1458;49.728;9.228;2023-04-15T05:30:59;5.50;99.90
2897;DHT22;1458;49.728;9.228;2023-04-15T05:33:26;5.60;99.90
2897;DHT22;1458;49.728;9.228;2023-04-15T05:35:54;5.60;99.90
2897;DHT22;1458;49.728;9.228;2023-04-15T05:38:21;5.60;99.90
2897;DHT22;1458;49.728;9.228;2023-04-15T05:40:48;5.60;99.90
2897;DHT22;1458;49.728;9.228;2023-04-15T05:43:17;5.60;99.90
2897;DHT22;1458;49.728;9.228;2023-04-15T05:45:45;5.70;99.90
2897;DHT22;1458;49.728;9.228;2023-04-15T05:48:12;5.80;99.90
2897;DHT22;1458;49.728;9.228;2023-04-15T05:50:40;5.90;99.90
2897;DHT22;1458;49.728;9.228;2023-04-15T05:53:08;6.00;99.90
2897;DHT22;1458;49.728;9.228;2023-04-15T05:55:35;6.10;99.90
2897;DHT22;1458;49.728;9.228;2023-04-15T05:58:03;6.00;99.90
2897;DHT22;1458;49.728;9.228;2023-04-15T06:00:31;6.10;99.90
2897;DHT22;1458;49.728;9.228;2023-04-15T06:02:59;6.20;99.90
2897;DHT22;1458;49.728;9.228;2023-04-15T06:05:26;6.30;99.90
2897;DHT22;1458;49.728;9.228;2023-04-15T06:07:54;6.40;99.90
2897;DHT22;1458;49.728;9.228;2023-04-15T06:10:21;6.50;99.90
2897;DHT22;1458;49.728;9.228;2023-04-15T06:12:49;6.70;99.90
2897;DHT22;1458;49.728;9.228;2023-04-15T06:15:16;6.90;99.90
2897;DHT22;1458;49.728;9.228;2023-04-15T06:17:45;6.60;99.90
2897;DHT22;1458;49.728;9.228;2023-04-15T06:20:13;7.10;99.90
2897;DHT22;1458;49.728;9.228;2023-04-15T06:22:40;6.90;99.90
2897;DHT22;1458;49.728;9.228;2023-04-15T06:25:08;7.20;99.90
2897;DHT22;1458;49.728;9.228;2023-04-15T06:27:36;7.20;99.90
2897;DHT22;1458;49.728;9.228;2023-04-15T06:30:04;7.10;99.90
2897;DHT22;1458;49.728;9.228;2023-04-15T06:32:32;7.30;99.90
2897;DHT22;1458;49.728;9.228;2023-04-15T06:35:01;7.70;99.90
2897;DHT22;1458;49.728;9.228;2023-04-15T06:37:28;7.70;99.90
2897;DHT22;1458;49.728;9.228;2023-04-15T06:39:57;7.80;99.90
2897;DHT22;1458;49.728;9.228;2023-04-15T06:42:24;8.10;99.90
2897;DHT22;1458;49.728;9.228;2023-04-15T06:44:52;8.00;99.90
2897;DHT22;1458;49.728;9.228;2023-04-15T06:47:20;8.20;99.90
2897;DHT22;1458;49.728;9.228;2023-04-15T06:49:47;8.40;99.90
2897;DHT22;1458;49.728;9.228;2023-04-15T06:52:19;8.40;99.90
2897;DHT22;1458;49.728;9.228;2023-04-15T06:54:46;8.70;99.90
2897;DHT22;1458;49.728;9.228;2023-04-15T06:57:14;8.70;99.90
2897;DHT22;1458;49.728;9.228;2023-04-15T06:59:41;8.70;99.90
2897;DHT22;1458;49.728;9.228;2023-04-15T07:02:11;8.50;99.90
2897;DHT22;1458;49.728;9.228;2023-04-15T07:04:39;8.60;99.90
2897;DHT22;1458;49.728;9.228;2023-04-15T07:07:06;8.80;99.90
2897;DHT22;1458;49.728;9.228;2023-04-15T07:09:35;8.90;99.90
2897;DHT22;1458;49.728;9.228;2023-04-15T07:12:03;8.80;99.90
2897;DHT22;1458;49.728;9.228;2023-04-15T07:14:30;8.90;99.90
2897;DHT22;1458;49.728;9.228;2023-04-15T07:16:58;9.10;99.90
2897;DHT22;1458;49.728;9.228;2023-04-15T07:19:26;8.80;99.90
2897;DHT22;1458;49.728;9.228;2023-04-15T07:21:53;8.70;99.90
2897;DHT22;1458;49.728;9.228;2023-04-15T07:24:21;8.60;99.90
2897;DHT22;1458;49.728;9.228;2023-04-15T07:26:52;8.50;99.70
2897;DHT22;1458;49.728;9.228;2023-04-15T07:29:21;8.60;99.90
2897;DHT22;1458;49.728;9.228;2023-04-15T07:31:48;9.00;99.10
2897;DHT22;1458;49.728;9.228;2023-04-15T07:34:16;9.10;99.10
2897;DHT22;1458;49.728;9.228;2023-04-15T07:36:43;9.20;98.70
2897;DHT22;1458;49.728;9.228;2023-04-15T07:39:11;9.30;98.20
2897;DHT22;1458;49.728;9.228;2023-04-15T07:41:38;9.30;98.50
2897;DHT22;1458;49.728;9.228;2023-04-15T07:44:07;9.60;97.80
2897;DHT22;1458;49.728;9.228;2023-04-15T07:46:34;9.60;98.50
2897;DHT22;1458;49.728;9.228;2023-04-15T07:49:03;9.60;98.40
2897;DHT22;1458;49.728;9.228;2023-04-15T07:51:30;9.50;98.40
2897;DHT22;1458;49.728;9.228;2023-04-15T07:53:58;9.90;99.40
2897;DHT22;1458;49.728;9.228;2023-04-15T07:56:25;10.00;97.30
2897;DHT22;1458;49.728;9.228;2023-04-15T07:58:53;10.00;98.40
2897;DHT22;1458;49.728;9.228;2023-04-15T08:01:22;10.10;97.00
2897;DHT22;1458;49.728;9.228;2023-04-15T08:03:50;10.10;97.10
2897;DHT22;1458;49.728;9.228;2023-04-15T08:06:17;10.00;97.60
2897;DHT22;1458;49.728;9.228;2023-04-15T08:08:45;10.20;96.70
2897;DHT22;1458;49.728;9.228;2023-04-15T08:11:13;10.30;97.00
2897;DHT22;1458;49.728;9.228;2023-04-15T08:13:40;10.10;96.90
2897;DHT22;1458;49.728;9.228;2023-04-15T08:16:15;10.60;96.60
2897;DHT22;1458;49.728;9.228;2023-04-15T08:18:45;11.00;94.70
2897;DHT22;1458;49.728;9.228;2023-04-15T08:21:13;11.10;93.30
2897;DHT22;1458;49.728;9.228;2023-04-15T08:23:41;11.50;93.30
2897;DHT22;1458;49.728;9.228;2023-04-15T08:26:09;11.50;92.20
2897;DHT22;1458;49.728;9.228;2023-04-15T08:28:38;11.50;91.90
2897;DHT22;1458;49.728;9.228;2023-04-15T08:31:06;11.70;91.30
2897;DHT22;1458;49.728;9.228;2023-04-15T08:33:34;11.60;90.80
2897;DHT22;1458;49.728;9.228;2023-04-15T08:36:03;11.60;90.30
2897;DHT22;1458;49.728;9.228;2023-04-15T08:38:32;11.50;90.90
2897;DHT22;1458;49.728;9.228;2023-04-15T08:41:02;11.70;90.30
2897;DHT22;1458;49.728;9.228;2023-04-15T08:43:33;12.00;90.10
2897;DHT22;1458;49.728;9.228;2023-04-15T08:46:03;11.90;90.80
2897;DHT22;1458;49.728;9.228;2023-04-15T08:48:32;12.00;87.70
2897;DHT22;1458;49.728;9.228;2023-04-15T08:51:00;12.10;90.20
2897;DHT22;1458;49.728;9.228;2023-04-15T08:53:30;12.20;86.70
2897;DHT22;1458;49.728;9.228;2023-04-15T08:55:59;12.20;87.10
2897;DHT22;1458;49.728;9.228;2023-04-15T08:58:31;12.50;86.10
2897;DHT22;1458;49.728;9.228;2023-04-15T09:00:59;12.50;84.80
2897;DHT22;1458;49.728;9.228;2023-04-15T09:03:27;12.70;83.80
2897;DHT22;1458;49.728;9.228;2023-04-15T09:05:56;12.90;86.10
2897;DHT22;1458;49.728;9.228;2023-04-15T09:08:23;13.00;81.20
2897;DHT22;1458;49.728;9.228;2023-04-15T09:10:53;13.00;80.40
2897;DHT22;1458;49.728;9.228;2023-04-15T09:13:20;13.30;81.40
2897;DHT22;1458;49.728;9.228;2023-04-15T09:15:48;13.50;76.50
2897;DHT22;1458;49.728;9.228;2023-04-15T09:18:27;13.00;74.60
2897;DHT22;1458;49.728;9.228;2023-04-15T09:20:55;12.70;76.10
2897;DHT22;1458;49.728;9.228;2023-04-15T09:23:23;12.40;75.50
2897;DHT22;1458;49.728;9.228;2023-04-15T09:25:52;12.40;75.10
2897;DHT22;1458;49.728;9.228;2023-04-15T09:28:24;12.60;77.20
2897;DHT22;1458;49.728;9.228;2023-04-15T09:30:55;12.50;74.80
2897;DHT22;1458;49.728;9.228;2023-04-15T09:33:23;12.40;73.20
2897;DHT22;1458;49.728;9.228;2023-04-15T09:35:59;12.40;73.60
2897;DHT22;1458;49.728;9.228;2023-04-15T09:38:28;12.20;73.70
2897;DHT22;1458;49.728;9.228;2023-04-15T09:40:57;12.20;73.50
2897;DHT22;1458;49.728;9.228;2023-04-15T09:43:37;12.40;74.00
2897;DHT22;1458;49.728;9.228;2023-04-15T09:46:05;12.30;73.60
2897;DHT22;1458;49.728;9.228;2023-04-15T09:48:32;12.70;72.50
2897;DHT22;1458;49.728;9.228;2023-04-15T09:51:00;12.50;70.50
2897;DHT22;1458;49.728;9.228;2023-04-15T09:53:28;12.70;72.00
2897;DHT22;1458;49.728;9.228;2023-04-15T09:55:59;12.80;71.80
2897;DHT22;1458;49.728;9.228;2023-04-15T09:58:28;12.80;70.00
2897;DHT22;1458;49.728;9.228;2023-04-15T10:00:57;12.80;71.30
2897;DHT22;1458;49.728;9.228;2023-04-15T10:03:27;12.40;70.50
2897;DHT22;1458;49.728;9.228;2023-04-15T10:05:57;12.20;71.00
2897;DHT22;1458;49.728;9.228;2023-04-15T10:08:27;12.30;72.10
2897;DHT22;1458;49.728;9.228;2023-04-15T10:10:55;12.20;72.10
2897;DHT22;1458;49.728;9.228;2023-04-15T10:13:28;12.20;73.00
2897;DHT22;1458;49.728;9.228;2023-04-15T10:15:59;12.20;72.80
2897;DHT22;1458;49.728;9.228;2023-04-15T10:18:27;12.10;72.40
2897;DHT22;1458;49.728;9.228;2023-04-15T10:20:55;12.30;73.30
2897;DHT22;1458;49.728;9.228;2023-04-15T10:23:22;12.30;71.20
2897;DHT22;1458;49.728;9.228;2023-04-15T10:25:51;12.40;72.50
2897;DHT22;1458;49.728;9.228;2023-04-15T10:28:21;12.80;74.50
2897;DHT22;1458;49.728;9.228;2023-04-15T10:30:49;13.20;71.20
2897;DHT22;1458;49.728;9.228;2023-04-15T10:33:20;13.20;71.10
2897;DHT22;1458;49.728;9.228;2023-04-15T10:35:52;13.30;71.50
2897;DHT22;1458;49.728;9.228;2023-04-15T10:38:42;13.40;68.80
2897;DHT22;1458;49.728;9.228;2023-04-15T10:41:12;13.60;69.40
2897;DHT22;1458;49.728;9.228;2023-04-15T10:43:47;13.60;68.80
2897;DHT22;1458;49.728;9.228;2023-04-15T10:46:18;13.80;67.90
2897;DHT22;1458;49.728;9.228;2023-04-15T10:48:51;14.00;68.50
2897;DHT22;1458;49.728;9.228;2023-04-15T10:51:29;14.00;66.00
2897;DHT22;1458;49.728;9.228;2023-04-15T10:53:58;14.00;65.80
2897;DHT22;1458;49.728;9.228;2023-04-15T10:56:28;14.00;66.00
2897;DHT22;1458;49.728;9.228;2023-04-15T10:58:59;14.30;64.50
2897;DHT22;1458;49.728;9.228;2023-04-15T11:01:50;13.70;64.80
2897;DHT22;1458;49.728;9.228;2023-04-15T11:04:50;13.60;64.10
2897;DHT22;1458;49.728;9.228;2023-04-15T11:07:33;13.80;65.90
2897;DHT22;1458;49.728;9.228;2023-04-15T11:10:02;13.60;62.10
2897;DHT22;1458;49.728;9.228;2023-04-15T11:12:33;13.40;61.60
2897;DHT22;1458;49.728;9.228;2023-04-15T11:15:27;13.10;52.70
2897;DHT22;1458;49.728;9.228;2023-04-15T11:17:57;13.10;57.80
2897;DHT22;1458;49.728;9.228;2023-04-15T11:20:25;13.20;58.90
2897;DHT22;1458;49.728;9.228;2023-04-15T11:22:53;13.40;58.10
2897;DHT22;1458;49.728;9.228;2023-04-15T11:25:22;12.90;59.30
2897;DHT22;1458;49.728;9.228;2023-04-15T11:27:51;12.80;61.30
2897;DHT22;1458;49.728;9.228;2023-04-15T11:30:21;12.60;63.10
2897;DHT22;1458;49.728;9.228;2023-04-15T11:32:51;12.60;64.20
2897;DHT22;1458;49.728;9.228;2023-04-15T11:35:20;12.40;66.00
2897;DHT22;1458;49.728;9.228;2023-04-15T11:37:48;12.50;66.00
2897;DHT22;1458;49.728;9.228;2023-04-15T11:40:19;12.30;66.30
2897;DHT22;1458;49.728;9.228;2023-04-15T11:43:03;12.20;67.40
2897;DHT22;1458;49.728;9.228;2023-04-15T11:45:31;12.00;70.80
2897;DHT22;1458;49.728;9.228;2023-04-15T11:48:10;12.10;71.50
2897;DHT22;1458;49.728;9.228;2023-04-15T11:50:39;12.10;69.40
2897;DHT22;1458;49.728;9.228;2023-04-15T11:53:08;11.90;70.10
2897;DHT22;1458;49.728;9.228;2023-04-15T11:55:44;11.60;70.60
2897;DHT22;1458;49.728;9.228;2023-04-15T11:58:14;11.50;72.60
2897;DHT22;1458;49.728;9.228;2023-04-15T12:00:46;11.50;72.00
2897;DHT22;1458;49.728;9.228;2023-04-15T12:03:25;11.50;74.00
2897;DHT22;1458;49.728;9.228;2023-04-15T12:06:11;11.30;76.90
2897;DHT22;1458;49.728;9.228;2023-04-15T12:09:02;11.20;78.70
2897;DHT22;1458;49.728;9.228;2023-04-15T12:11:35;11.10;81.30
2897;DHT22;1458;49.728;9.228;2023-04-15T12:14:19;10.60;86.10
2897;DHT22;1458;49.728;9.228;2023-04-15T12:16:49;10.50;91.90
2897;DHT22;1458;49.728;9.228;2023-04-15T12:19:24;10.20;94.30
2897;DHT22;1458;49.728;9.228;2023-04-15T12:21:57;10.20;96.00
2897;DHT22;1458;49.728;9.228;2023-04-15T12:24:25;10.10;99.90
2897;DHT22;1458;49.728;9.228;2023-04-15T12:26:54;10.20;99.90
2897;DHT22;1458;49.728;9.228;2023-04-15T12:29:24;10.30;99.90
2897;DHT22;1458;49.728;9.228;2023-04-15T12:31:55;10.20;99.90
2897;DHT22;1458;49.728;9.228;2023-04-15T12:34:29;10.30;99.90
2897;DHT22;1458;49.728;9.228;2023-04-15T12:36:58;10.30;99.90
2897;DHT22;1458;49.728;9.228;2023-04-15T12:39:28;10.20;99.90
2897;DHT22;1458;49.728;9.228;2023-04-15T12:41:56;9.90;99.90
2897;DHT22;1458;49.728;9.228;2023-04-15T12:44:25;9.70;99.90
2897;DHT22;1458;49.728;9.228;2023-04-15T12:46:53;9.80;99.90
2897;DHT22;1458;49.728;9.228;2023-04-15T12:49:22;9.80;99.90
2897;DHT22;1458;49.728;9.228;2023-04-15T12:51:52;9.80;99.90
2897;DHT22;1458;49.728;9.228;2023-04-15T12:54:21;10.00;99.90
2897;DHT22;1458;49.728;9.228;2023-04-15T12:56:49;9.80;99.90
2897;DHT22;1458;49.728;9.228;2023-04-15T12:59:17;9.80;99.90
2897;DHT22;1458;49.728;9.228;2023-04-15T13:01:45;9.80;99.90
2897;DHT22;1458;49.728;9.228;2023-04-15T13:04:13;9.70;99.90
2897;DHT22;1458;49.728;9.228;2023-04-15T13:06:42;9.60;99.90
2897;DHT22;1458;49.728;9.228;2023-04-15T13:09:11;9.60;99.90
2897;DHT22;1458;49.728;9.228;2023-04-15T13:11:38;9.60;99.90
2897;DHT22;1458;49.728;9.228;2023-04-15T13:14:07;9.50;99.90
2897;DHT22;1458;49.728;9.228;2023-04-15T13:16:36;9.60;99.90
2897;DHT22;1458;49.728;9.228;2023-04-15T13:19:03;9.80;99.90
2897;DHT22;1458;49.728;9.228;2023-04-15T13:21:31;9.60;99.90
2897;DHT22;1458;49.728;9.228;2023-04-15T13:24:00;9.70;99.90
2897;DHT22;1458;49.728;9.228;2023-04-15T13:26:29;9.80;99.90
2897;DHT22;1458;49.728;9.228;2023-04-15T13:28:56;9.80;99.90
2897;DHT22;1458;49.728;9.228;2023-04-15T13:31:26;9.80;99.90
2897;DHT22;1458;49.728;9.228;2023-04-15T13:33:55;9.60;99.90
2897;DHT22;1458;49.728;9.228;2023-04-15T13:36:23;9.50;99.90
2897;DHT22;1458;49.728;9.228;2023-04-15T13:38:51;9.60;99.90
2897;DHT22;1458;49.728;9.228;2023-04-15T13:41:18;9.80;99.90
2897;DHT22;1458;49.728;9.228;2023-04-15T13:43:47;9.80;99.90
2897;DHT22;1458;49.728;9.228;2023-04-15T13:46:14;10.00;99.90
2897;DHT22;1458;49.728;9.228;2023-04-15T13:48:42;10.20;99.90
2897;DHT22;1458;49.728;9.228;2023-04-15T13:51:09;10.30;99.90
2897;DHT22;1458;49.728;9.228;2023-04-15T13:53:37;10.30;99.90
2897;DHT22;1458;49.728;9.228;2023-04-15T13:56:05;10.40;99.90
2897;DHT22;1458;49.728;9.228;2023-04-15T13:58:32;10.30;99.90
2897;DHT22;1458;49.728;9.228;2023-04-15T14:01:02;10.20;99.90
2897;DHT22;1458;49.728;9.228;2023-04-15T14:03:29;10.20;99.90
2897;DHT22;1458;49.728;9.228;2023-04-15T14:05:57;10.10;99.90
2897;DHT22;1458;49.728;9.228;2023-04-15T14:08:24;10.10;99.90
2897;DHT22;1458;49.728;9.228;2023-04-15T14:10:52;10.00;99.90
2897;DHT22;1458;49.728;9.228;2023-04-15T14:13:19;10.00;99.90
2897;DHT22;1458;49.728;9.228;2023-04-15T14:15:47;9.80;99.90
2897;DHT22;1458;49.728;9.228;2023-04-15T14:18:15;9.90;99.90
2897;DHT22;1458;49.728;9.228;2023-04-15T14:20:43;9.90;99.90
2897;DHT22;1458;49.728;9.228;2023-04-15T14:23:10;9.80;99.90
2897;DHT22;1458;49.728;9.228;2023-04-15T14:25:38;9.70;99.90
2897;DHT22;1458;49.728;9.228;2023-04-15T14:28:05;9.80;99.90
2897;DHT22;1458;49.728;9.228;2023-04-15T14:30:33;9.80;99.90
2897;DHT22;1458;49.728;9.228;2023-04-15T14:33:00;9.80;99.90
2897;DHT22;1458;49.728;9.228;2023-04-15T14:35:29;9.80;99.90
2897;DHT22;1458;49.728;9.228;2023-04-15T14:37:57;9.80;99.90
2897;DHT22;1458;49.728;9.228;2023-04-15T14:40:24;9.80;99.90
2897;DHT22;1458;49.728;9.228;2023-04-15T14:42:52;9.90;99.90
2897;DHT22;1458;49.728;9.228;2023-04-15T14:45:19;10.00;99.90
2897;DHT22;1458;49.728;9.228;2023-04-15T14:47:47;10.10;99.90
2897;DHT22;1458;49.728;9.228;2023-04-15T14:50:14;10.10;99.90
2897;DHT22;1458;49.728;9.228;2023-04-15T14:52:43;10.10;99.90
2897;DHT22;1458;49.728;9.228;2023-04-15T14:55:11;9.90;99.90
2897;DHT22;1458;49.728;9.228;2023-04-15T14:57:40;9.80;99.90
2897;DHT22;1458;49.728;9.228;2023-04-15T15:00:09;9.80;99.90
2897;DHT22;1458;49.728;9.228;2023-04-15T15:02:37;9.70;99.90
2897;DHT22;1458;49.728;9.228;2023-04-15T15:05:05;9.60;99.90
2897;DHT22;1458;49.728;9.228;2023-04-15T15:07:36;9.60;99.90
2897;DHT22;1458;49.728;9.228;2023-04-15T15:10:06;9.60;99.90
2897;DHT22;1458;49.728;9.228;2023-04-15T15:12:34;9.70;99.90
2897;DHT22;1458;49.728;9.228;2023-04-15T15:15:02;9.70;99.90
2897;DHT22;1458;49.728;9.228;2023-04-15T15:17:30;9.60;99.90
2897;DHT22;1458;49.728;9.228;2023-04-15T15:19:57;9.50;99.90
2897;DHT22;1458;49.728;9.228;2023-04-15T15:22:25;9.40;99.90
2897;DHT22;1458;49.728;9.228;2023-04-15T15:24:53;9.30;99.90
2897;DHT22;1458;49.728;9.228;2023-04-15T15:27:25;9.40;99.90
2897;DHT22;1458;49.728;9.228;2023-04-15T15:29:52;9.40;99.90
2897;DHT22;1458;49.728;9.228;2023-04-15T15:32:20;9.30;99.90
2897;DHT22;1458;49.728;9.228;2023-04-15T15:34:47;9.30;99.90
2897;DHT22;1458;49.728;9.228;2023-04-15T15:37:15;9.10;99.90
2897;DHT22;1458;49.728;9.228;2023-04-15T15:39:42;9.10;99.90
2897;DHT22;1458;49.728;9.228;2023-04-15T15:42:10;9.10;99.90
2897;DHT22;1458;49.728;9.228;2023-04-15T15:44:39;9.10;99.90
2897;DHT22;1458;49.728;9.228;2023-04-15T15:47:06;9.10;99.90
2897;DHT22;1458;49.728;9.228;2023-04-15T15:49:34;9.20;99.90
2897;DHT22;1458;49.728;9.228;2023-04-15T15:52:02;9.10;99.90
2897;DHT22;1458;49.728;9.228;2023-04-15T15:54:31;9.00;99.90
2897;DHT22;1458;49.728;9.228;2023-04-15T15:57:01;9.00;99.90
2897;DHT22;1458;49.728;9.228;2023-04-15T15:59:29;9.10;99.90
2897;DHT22;1458;49.728;9.228;2023-04-15T16:01:59;9.10;99.90
2897;DHT22;1458;49.728;9.228;2023-04-15T16:04:27;9.10;99.90
2897;DHT22;1458;49.728;9.228;2023-04-15T16:06:54;9.20;99.90
2897;DHT22;1458;49.728;9.228;2023-04-15T16:09:21;9.00;99.90
2897;DHT22;1458;49.728;9.228;2023-04-15T16:11:49;8.90;99.90
2897;DHT22;1458;49.728;9.228;2023-04-15T16:14:17;8.80;99.90
2897;DHT22;1458;49.728;9.228;2023-04-15T16:16:44;8.80;99.90
2897;DHT22;1458;49.728;9.228;2023-04-15T16:19:13;8.90;99.90
2897;DHT22;1458;49.728;9.228;2023-04-15T16:21:41;8.80;99.90
2897;DHT22;1458;49.728;9.228;2023-04-15T16:24:09;8.70;99.90